LiveATC.Net - Listen to live air traffic control over the Internet!


ICAO: CYYT  IATA: YYT   Airport: St. John's International Airport
City: St. John's   State/Province: Newfoundland
Country: Canada   Continent: North America
CYYT METAR Weather: CYYT 251500Z 04015KT 3/8SM R11/2200V4500FT/D R16/3000VP6000FT/U FG VV002 05/05 A2996 RMK FG8 SLP152
CYYT Flight Activity (FlightAware)
CYYT Webcam:  (Airport Webcams) 

CYYT Gnd/Twr/Gander Center
Feed Status: UP   Listeners: 2
Listen right in your browser - requires Flash (in browser, requires Flash)
Click here to listen with your own player (launches your MP3 player)
CYYT Gnd/Twr/Gander Center Audio Archives
FacilityFrequency
Gander Center133.150
Halifax Radio (FSS)123.275
St. John's Ground121.900
St. John's Tower120.600

NOTICE

Unauthorized use prohibited. See LiveATC.net Terms of Service


Find LiveATC Audio Streams


Airport/ARTCC Code

Frequency Search
(e.g., 124.400, 128.75)
Site-wide search
 


Browse LiveATC Feeds
LiveATC Coverage Map
Top 50 LiveATC Feeds
Bad Weather Areas

LiveATC FAQ
Offer a LiveATC Feed
Contact LiveATC.net
Press Inquiries

LiveATC on iPhone
LiveATC on Android

Windows Phone
Windows 8/10

LiveATC Mobile
(Mobile browser)

ATC Audio Archives
Interesting Recordings

LiveATC Forums


Home Page
About LiveATC.net
Make a Donation
Terms of Use
Privacy Policy

Canadian Air Freqs

AIRMETs/SIGMETs

FAA Airport Status
Nat'l Airspace Status
Arrival Demand Charts


Server Software By:
Icecast.org
Liquidsoap